createdAt,value
2019-02-11T00:00:20.539Z,22.6
2019-02-11T00:01:10.547Z,22.6
2019-02-11T00:02:00.684Z,22.6
2019-02-11T00:02:50.649Z,22.6
2019-02-11T00:03:40.711Z,22.6
2019-02-11T00:04:30.495Z,22.6
2019-02-11T00:05:20.269Z,22.5
2019-02-11T00:06:10.906Z,22.5
2019-02-11T00:07:00.417Z,22.6
2019-02-11T00:07:50.468Z,22.6
2019-02-11T00:08:41.061Z,22.6
2019-02-11T00:09:30.836Z,22.6
2019-02-11T00:10:21.201Z,22.5
2019-02-11T00:11:11.571Z,22.6
2019-02-11T00:12:00.459Z,22.5
2019-02-11T00:12:50.794Z,22.5
2019-02-11T00:13:41.443Z,22.6
2019-02-11T00:14:31.203Z,22.5
2019-02-11T00:15:20.961Z,22.5
2019-02-11T00:16:11.873Z,22.5
2019-02-11T00:17:01.973Z,22.5
2019-02-11T00:17:51.758Z,22.5
2019-02-11T00:18:41.818Z,22.5
2019-02-11T00:19:32.160Z,22.5
2019-02-11T00:20:21.883Z,22.5
2019-02-11T00:21:11.370Z,22.5
2019-02-11T00:22:02.288Z,22.5
2019-02-11T00:22:51.505Z,22.5
2019-02-11T00:23:41.824Z,22.5
2019-02-11T00:24:31.625Z,22.5
2019-02-11T00:25:21.394Z,22.5
2019-02-11T00:26:11.750Z,22.5
2019-02-11T00:27:01.809Z,22.5
2019-02-11T00:27:52.502Z,22.5
2019-02-11T00:28:42.507Z,22.5
2019-02-11T00:29:32.570Z,22.5
2019-02-11T00:30:22.837Z,22.5
2019-02-11T00:31:13.053Z,22.5
2019-02-11T00:32:03.019Z,22.5
2019-02-11T00:32:53.489Z,22.5
2019-02-11T00:33:43.104Z,22.5
2019-02-11T00:34:32.654Z,22.5
2019-02-11T00:35:22.656Z,22.5
2019-02-11T00:36:12.157Z,22.5
2019-02-11T00:37:03.084Z,22.5
2019-02-11T00:37:52.837Z,22.4
2019-02-11T00:38:42.901Z,22.5
2019-02-11T00:39:32.816Z,22.4
2019-02-11T00:40:22.729Z,22.4
2019-02-11T00:41:12.533Z,22.5
2019-02-11T00:42:02.302Z,22.5
2019-02-11T00:42:53.178Z,22.4
2019-02-11T00:43:43.239Z,22.4
2019-02-11T00:44:33.004Z,22.4
2019-02-11T00:45:23.066Z,22.4
2019-02-11T00:46:13.671Z,22.4
2019-02-11T00:47:03.501Z,22.4
2019-02-11T00:47:53.233Z,22.4
2019-02-11T00:48:43.593Z,22.4
2019-02-11T00:49:32.821Z,22.4
2019-02-11T00:50:24.032Z,22.4
2019-02-11T00:51:13.472Z,22.4
2019-02-11T00:52:03.271Z,22.4
2019-02-11T00:52:54.425Z,22.4
2019-02-11T00:53:42.828Z,22.4
2019-02-11T00:54:34.268Z,22.4
2019-02-11T00:55:24.397Z,22.4
2019-02-11T00:56:14.373Z,22.4
2019-02-11T00:57:04.457Z,22.4
2019-02-11T00:57:54.510Z,22.4
2019-02-11T00:58:43.733Z,22.4
2019-02-11T00:59:34.355Z,22.4
2019-02-11T01:00:24.200Z,22.4
2019-02-11T01:01:15.058Z,22.4
2019-02-11T01:02:03.957Z,22.4
2019-02-11T01:02:54.842Z,22.4
2019-02-11T01:03:44.921Z,22.4
2019-02-11T01:04:34.697Z,22.4
2019-02-11T01:05:24.487Z,22.4
2019-02-11T01:06:14.268Z,22.4
2019-02-11T01:07:04.930Z,22.4
2019-02-11T01:07:54.934Z,22.4
2019-02-11T01:08:44.432Z,22.4
2019-02-11T01:09:35.312Z,22.4
2019-02-11T01:10:24.600Z,22.4
2019-02-11T01:11:15.235Z,22.4
2019-02-11T01:12:04.930Z,22.4
2019-02-11T01:12:54.429Z,22.4
2019-02-11T01:13:45.125Z,22.4
2019-02-11T01:14:34.570Z,22.4
2019-02-11T01:15:24.332Z,22.4
2019-02-11T01:16:15.790Z,22.4
2019-02-11T01:17:05.292Z,22.4
2019-02-11T01:17:55.684Z,22.4
2019-02-11T01:18:45.477Z,22.4
2019-02-11T01:19:36.017Z,22.4
2019-02-11T01:20:25.806Z,22.4
2019-02-11T01:21:15.569Z,22.4
2019-02-11T01:22:06.237Z,22.4
2019-02-11T01:22:55.971Z,22.4
2019-02-11T01:23:45.207Z,22.4
2019-02-11T01:24:35.811Z,22.4
2019-02-11T01:25:25.594Z,22.4
2019-02-11T01:26:16.203Z,22.4
2019-02-11T01:27:06.536Z,22.4
2019-02-11T01:27:56.336Z,22.4
2019-02-11T01:28:46.716Z,22.4
2019-02-11T01:29:36.436Z,22.4
2019-02-11T01:30:26.828Z,22.4
2019-02-11T01:31:16.296Z,22.4
2019-02-11T01:32:06.596Z,22.4
2019-02-11T01:32:56.396Z,22.4
2019-02-11T01:33:47.056Z,22.4
2019-02-11T01:34:36.809Z,22.4
2019-02-11T01:35:27.123Z,22.4
2019-02-11T01:36:16.350Z,22.4
2019-02-11T01:37:06.406Z,22.4
2019-02-11T01:37:57.059Z,22.4
2019-02-11T01:38:47.088Z,22.4
2019-02-11T01:39:36.655Z,22.4
2019-02-11T01:40:26.976Z,22.4
2019-02-11T01:41:16.987Z,22.4
2019-02-11T01:42:07.117Z,22.3
2019-02-11T01:42:57.655Z,22.3
2019-02-11T01:43:47.970Z,22.3
2019-02-11T01:44:36.922Z,22.3
2019-02-11T01:45:27.288Z,22.4
2019-02-11T01:46:17.902Z,22.3
2019-02-11T01:47:06.883Z,22.3
2019-02-11T01:47:56.908Z,22.3
2019-02-11T01:48:48.065Z,22.3
2019-02-11T01:49:38.132Z,22.3
2019-02-11T01:50:27.913Z,22.3
2019-02-11T01:51:18.244Z,22.3
2019-02-11T01:52:07.260Z,22.3
2019-02-11T01:52:58.652Z,22.3
2019-02-11T01:53:48.449Z,22.3
2019-02-11T01:54:38.749Z,22.3
2019-02-11T01:55:27.979Z,22.3
2019-02-11T01:56:18.114Z,22.3
2019-02-11T01:57:08.642Z,22.3
2019-02-11T01:57:58.707Z,22.3
2019-02-11T01:58:47.989Z,22.3
2019-02-11T01:59:38.556Z,22.3
2019-02-11T02:00:28.058Z,22.3
2019-02-11T02:01:18.589Z,22.3
2019-02-11T02:02:08.728Z,22.3
2019-02-11T02:02:58.829Z,22.3
2019-02-11T02:03:49.126Z,22.4
2019-02-11T02:04:39.174Z,22.4
2019-02-11T02:05:28.411Z,22.4
2019-02-11T02:06:19.291Z,22.4
2019-02-11T02:07:09.369Z,22.4
2019-02-11T02:07:59.123Z,22.4
2019-02-11T02:08:49.471Z,22.4
2019-02-11T02:09:38.697Z,22.4
2019-02-11T02:10:29.298Z,22.5
2019-02-11T02:11:19.088Z,22.6
2019-02-11T02:12:09.430Z,22.6
2019-02-11T02:12:58.933Z,22.6
2019-02-11T02:13:49.993Z,22.7
2019-02-11T02:14:39.588Z,22.7
2019-02-11T02:15:29.691Z,22.8
2019-02-11T02:16:19.995Z,22.8
2019-02-11T02:17:09.228Z,22.8
2019-02-11T02:17:59.817Z,22.9
2019-02-11T02:18:49.338Z,22.9
2019-02-11T02:19:39.115Z,23
2019-02-11T02:20:30.280Z,23.1
2019-02-11T02:21:20.360Z,23.1
2019-02-11T02:22:09.148Z,23.2
2019-02-11T02:23:00.525Z,23.3
2019-02-11T02:23:50.525Z,23.3
2019-02-11T02:24:40.295Z,23.4
2019-02-11T02:25:30.908Z,23.5
2019-02-11T02:26:19.912Z,23.6
2019-02-11T02:27:10.211Z,23.6
2019-02-11T02:28:00.542Z,23.8
2019-02-11T02:28:50.307Z,23.8
2019-02-11T02:29:40.934Z,23.9
2019-02-11T02:30:30.555Z,23.9
2019-02-11T02:31:20.501Z,24.1
2019-02-11T02:32:10.862Z,24.1
2019-02-11T02:33:01.280Z,24.2
2019-02-11T02:33:51.240Z,24.3
2019-02-11T02:34:41.072Z,24.4
2019-02-11T02:35:30.842Z,24.4
2019-02-11T02:36:20.905Z,24.6
2019-02-11T02:37:11.777Z,24.6
2019-02-11T02:38:01.836Z,24.8
2019-02-11T02:38:51.617Z,24.8
2019-02-11T02:39:41.359Z,24.9
2019-02-11T02:40:31.792Z,25
2019-02-11T02:41:21.252Z,25.1
2019-02-11T02:42:11.877Z,25.2
2019-02-11T02:43:02.214Z,25.3
2019-02-11T02:44:01.616Z,25.4
2019-02-11T02:44:41.004Z,25.5
2019-02-11T02:45:31.045Z,25.6
2019-02-11T02:46:20.855Z,25.7
2019-02-11T02:47:11.423Z,25.8
2019-02-11T02:48:01.482Z,25.9
2019-02-11T02:48:51.851Z,25.9
2019-02-11T02:49:41.868Z,26.1
2019-02-11T02:50:31.943Z,26.2
2019-02-11T02:51:22.021Z,26.3
2019-02-11T02:52:11.594Z,26.3
2019-02-11T02:53:02.153Z,26.4
2019-02-11T02:53:51.889Z,26.6
2019-02-11T02:54:41.949Z,26.6
2019-02-11T02:55:32.006Z,26.8
2019-02-11T02:56:21.555Z,26.8
2019-02-11T02:57:12.429Z,26.9
2019-02-11T02:58:01.940Z,27.1
2019-02-11T02:58:52.598Z,27.2
2019-02-11T02:59:42.520Z,27.3
2019-02-11T03:00:32.906Z,27.4
2019-02-11T03:01:23.455Z,27.5
2019-02-11T03:02:12.701Z,27.6
2019-02-11T03:03:02.494Z,27.7
2019-02-11T03:04:42.907Z,27.9
2019-02-11T03:08:15.592Z,28.3
2019-02-11T03:09:05.081Z,28.4
2019-02-11T03:09:55.995Z,28.6
2019-02-11T03:10:45.982Z,28.7
2019-02-11T03:11:35.861Z,28.8
2019-02-11T03:12:25.826Z,28.9
2019-02-11T03:13:15.882Z,29
2019-02-11T03:14:12.277Z,29.1
2019-02-11T03:14:55.802Z,29.3
2019-02-11T03:15:46.369Z,29.4
2019-02-11T03:16:35.039Z,29.4
2019-02-11T03:17:26.459Z,29.6
2019-02-11T03:18:16.541Z,29.7
2019-02-11T03:19:06.030Z,29.8
2019-02-11T03:19:55.813Z,29.9
2019-02-11T03:20:46.149Z,30
2019-02-11T03:21:36.466Z,30.1
2019-02-11T03:22:26.508Z,30.3
2019-02-11T03:23:16.337Z,30.4
2019-02-11T03:24:06.939Z,30.4
2019-02-11T03:24:56.410Z,30.6
2019-02-11T03:25:46.811Z,30.7
2019-02-11T03:26:36.516Z,30.8
2019-02-11T03:27:26.617Z,30.9
2019-02-11T03:28:16.939Z,31
2019-02-11T03:29:06.769Z,31.1
2019-02-11T03:29:57.169Z,31.2
2019-02-11T03:30:46.957Z,31.3
2019-02-11T03:31:37.652Z,31.4
2019-02-11T03:32:27.400Z,31.4
2019-02-11T03:33:17.629Z,31.5
2019-02-11T03:34:07.395Z,31.6
2019-02-11T03:34:57.436Z,31.6
2019-02-11T03:35:47.458Z,31.7
2019-02-11T03:36:37.577Z,31.8
2019-02-11T03:37:27.848Z,31.8
2019-02-11T03:38:17.682Z,31.8
2019-02-11T03:39:08.008Z,31.9
2019-02-11T03:39:57.780Z,31.9
2019-02-11T03:40:48.088Z,31.9
2019-02-11T03:41:37.861Z,31.9
2019-02-11T03:42:27.918Z,32
2019-02-11T03:43:18.274Z,32
2019-02-11T03:44:17.912Z,32
2019-02-11T03:44:57.832Z,32.1
2019-02-11T03:45:48.184Z,32.1
2019-02-11T03:46:38.257Z,32.1
2019-02-11T03:47:28.289Z,32.1
2019-02-11T03:48:18.092Z,32.1
2019-02-11T03:49:07.956Z,32.1
2019-02-11T03:49:57.959Z,32.1
2019-02-11T03:50:47.754Z,32.1
2019-02-11T03:51:37.542Z,32.1
2019-02-11T03:52:27.655Z,32.2
2019-02-11T03:53:18.517Z,32.2
2019-02-11T03:54:07.982Z,32.2
2019-02-11T03:54:58.896Z,32.2
2019-02-11T03:55:48.398Z,32.2
2019-02-11T03:56:38.182Z,32.2
2019-02-11T03:57:28.265Z,32.2
2019-02-11T03:58:18.601Z,32.2
2019-02-11T03:59:08.942Z,32.2
2019-02-11T03:59:58.999Z,32.2
2019-02-11T04:00:49.216Z,32.3
2019-02-11T04:01:39.002Z,32.3
2019-02-11T04:02:29.064Z,32.3
2019-02-11T04:03:19.416Z,32.3
2019-02-11T04:04:09.268Z,32.2
2019-02-11T04:04:59.224Z,32.3
2019-02-11T04:05:49.004Z,32.3
2019-02-11T04:06:39.361Z,32.3
2019-02-11T04:07:29.448Z,32.3
2019-02-11T04:08:19.172Z,32.3
2019-02-11T04:09:10.174Z,32.3
2019-02-11T04:09:59.923Z,32.3
2019-02-11T04:10:49.652Z,32.3
2019-02-11T04:11:39.988Z,32.3
2019-02-11T04:12:29.830Z,32.3
2019-02-11T04:13:19.842Z,32.3
2019-02-11T04:14:10.175Z,32.3
2019-02-11T04:15:00.742Z,32.3
2019-02-11T04:15:50.029Z,32.3
2019-02-11T04:16:40.304Z,32.3
2019-02-11T04:17:29.572Z,32.3
2019-02-11T04:18:20.735Z,32.3
2019-02-11T04:19:10.882Z,32.3
2019-02-11T04:20:00.763Z,32.3
2019-02-11T04:20:53.133Z,32.3
2019-02-11T04:21:40.483Z,32.3
2019-02-11T04:22:30.736Z,32.3
2019-02-11T04:23:21.147Z,32.3
2019-02-11T04:24:11.221Z,32.3
2019-02-11T04:25:00.472Z,32.3
2019-02-11T04:25:50.797Z,32.3
2019-02-11T04:26:40.754Z,32.3
2019-02-11T04:27:30.512Z,32.3
2019-02-11T04:28:21.452Z,32.3
2019-02-11T04:29:11.480Z,32.3
2019-02-11T04:30:01.268Z,32.3
2019-02-11T04:30:51.737Z,32.3
2019-02-11T04:31:41.168Z,32.3
2019-02-11T04:32:30.897Z,32.3
2019-02-11T04:33:21.245Z,32.3
2019-02-11T04:34:10.775Z,32.3
2019-02-11T04:35:01.484Z,32.3
2019-02-11T04:35:51.662Z,32.3
2019-02-11T04:36:41.811Z,32.3
2019-02-11T04:37:31.775Z,32.3
2019-02-11T04:38:22.122Z,32.3
2019-02-11T04:39:11.631Z,32.3
2019-02-11T04:40:01.249Z,32.3
2019-02-11T04:40:52.048Z,32.3
2019-02-11T04:41:41.778Z,32.3
2019-02-11T04:42:31.301Z,32.3
2019-02-11T04:43:22.569Z,32.3
2019-02-11T04:44:11.970Z,32.3
2019-02-11T04:45:02.311Z,32.3
2019-02-11T04:45:52.358Z,32.3
2019-02-11T04:46:42.416Z,32.3
2019-02-11T04:47:31.719Z,32.3
2019-02-11T04:48:22.301Z,32.3
2019-02-11T04:49:12.358Z,32.3
2019-02-11T04:50:02.843Z,32.3
2019-02-11T04:50:52.737Z,32.3
2019-02-11T04:51:42.225Z,32.3
2019-02-11T04:52:33.148Z,32.3
2019-02-11T04:53:22.626Z,32.3
2019-02-11T04:54:13.308Z,32.3
2019-02-11T04:55:03.206Z,32.3
2019-02-11T04:55:53.376Z,32.3
2019-02-11T04:56:43.140Z,32.3
2019-02-11T04:57:33.495Z,32.3
2019-02-11T04:58:22.708Z,32.3
2019-02-11T04:59:13.424Z,32.3
2019-02-11T05:00:03.948Z,32.3
2019-02-11T05:00:53.418Z,32.3
2019-02-11T05:01:42.947Z,32.3
2019-02-11T05:02:32.748Z,32.3
2019-02-11T05:03:23.355Z,32.3
2019-02-11T05:04:13.965Z,32.3
2019-02-11T05:05:03.678Z,32.3
2019-02-11T05:05:54.077Z,32.3
2019-02-11T05:06:44.247Z,32.3
2019-02-11T05:07:33.986Z,32.3
2019-02-11T05:08:23.810Z,32.3
2019-02-11T05:09:14.340Z,32.3
2019-02-11T05:10:04.407Z,32.3
2019-02-11T05:10:54.127Z,32.3
2019-02-11T05:11:44.200Z,32.2
2019-02-11T05:12:34.028Z,32.3
2019-02-11T05:13:24.624Z,32.2
2019-02-11T05:14:14.744Z,32.3
2019-02-11T05:15:04.206Z,32.3
2019-02-11T05:15:54.292Z,32.3
2019-02-11T05:16:44.280Z,32.3
2019-02-11T05:17:34.607Z,32.2
2019-02-11T05:18:24.682Z,32.3
2019-02-11T05:19:15.020Z,32.2
2019-02-11T05:20:03.979Z,32.3
2019-02-11T05:20:55.217Z,32.2
2019-02-11T05:21:44.085Z,32.2
2019-02-11T05:22:34.662Z,32.3
2019-02-11T05:23:25.029Z,32.2
2019-02-11T05:24:15.382Z,32.2
2019-02-11T05:25:05.461Z,32.2
2019-02-11T05:25:55.016Z,32.2
2019-02-11T05:26:45.283Z,32.3
2019-02-11T05:27:34.792Z,32.2
2019-02-11T05:28:25.401Z,32.2
2019-02-11T05:29:15.163Z,32.2
2019-02-11T05:30:05.650Z,32.2
2019-02-11T05:30:54.974Z,32.2
2019-02-11T05:31:45.937Z,32.2
2019-02-11T05:32:35.459Z,32.2
2019-02-11T05:33:26.203Z,32.2
2019-02-11T05:34:15.840Z,32.2
2019-02-11T05:35:06.542Z,32.2
2019-02-11T05:35:55.924Z,32.2
2019-02-11T05:36:45.384Z,32.2
2019-02-11T05:37:36.013Z,32.2
2019-02-11T05:38:25.543Z,32.2
2019-02-11T05:39:15.677Z,32.2
2019-02-11T05:40:06.415Z,32.2
2019-02-11T05:40:55.954Z,32.2
2019-02-11T05:41:46.048Z,32.2
2019-02-11T05:42:36.348Z,32.2
2019-02-11T05:43:26.477Z,32.2
2019-02-11T05:44:15.913Z,32.2
2019-02-11T05:45:06.616Z,32.2
2019-02-11T05:45:56.605Z,32.2
2019-02-11T05:46:46.898Z,32.2
2019-02-11T05:47:36.743Z,32.2
2019-02-11T05:48:26.205Z,32.2
2019-02-11T05:49:16.819Z,32.2
2019-02-11T05:50:06.408Z,32.2
2019-02-11T05:50:56.667Z,32.1
2019-02-11T05:51:47.345Z,32.1
2019-02-11T05:52:37.387Z,32.1
2019-02-11T05:53:27.159Z,32.1
2019-02-11T05:54:17.451Z,32.1
2019-02-11T05:55:06.972Z,32.1
2019-02-11T05:55:57.037Z,32.1
2019-02-11T05:56:47.325Z,32.2
2019-02-11T05:57:36.898Z,32.2
2019-02-11T05:58:27.506Z,32.2
2019-02-11T05:59:17.211Z,32.2
2019-02-11T06:00:07.242Z,32.2
2019-02-11T06:00:57.100Z,32.2
2019-02-11T06:01:47.726Z,32.1
2019-02-11T06:02:37.456Z,32.2
2019-02-11T06:03:27.912Z,32.1
2019-02-11T06:04:17.354Z,32.2
2019-02-11T06:06:14.815Z,32.1
2019-02-11T06:07:04.880Z,32.1
2019-02-11T06:07:55.737Z,32.1
2019-02-11T06:08:44.719Z,32.2
2019-02-11T06:09:35.314Z,32.2
2019-02-11T06:10:25.166Z,32.2
2019-02-11T06:11:14.908Z,32.2
2019-02-11T06:12:05.813Z,32.3
2019-02-11T06:12:56.083Z,32.3
2019-02-11T06:13:45.566Z,32.3
2019-02-11T06:14:35.436Z,32.3
2019-02-11T06:15:25.981Z,32.3
2019-02-11T06:16:16.083Z,32.3
2019-02-11T06:17:06.108Z,32.3
2019-02-11T06:17:55.400Z,32.3
2019-02-11T06:18:44.925Z,32.3
2019-02-11T06:19:35.150Z,32.4
2019-02-11T06:20:26.087Z,32.3
2019-02-11T06:21:16.366Z,32.4
2019-02-11T06:22:06.696Z,32.4
2019-02-11T06:22:55.960Z,32.4
2019-02-11T06:23:45.998Z,32.4
2019-02-11T06:24:36.322Z,32.4
2019-02-11T06:25:26.894Z,32.4
2019-02-11T06:26:16.988Z,32.4
2019-02-11T06:27:06.127Z,32.4
2019-02-11T06:27:56.300Z,32.4
2019-02-11T06:28:46.710Z,32.4
2019-02-11T06:29:36.972Z,32.4
2019-02-11T06:30:26.785Z,32.4
2019-02-11T06:31:17.088Z,32.4
2019-02-11T06:32:07.512Z,32.4
2019-02-11T06:32:56.657Z,32.4
2019-02-11T06:33:46.438Z,32.4
2019-02-11T06:34:38.617Z,32.3
2019-02-11T06:35:27.114Z,32.3
2019-02-11T06:36:17.893Z,32.3
2019-02-11T06:37:06.977Z,32.3
2019-02-11T06:37:57.013Z,32.3
2019-02-11T06:38:47.647Z,32.3
2019-02-11T06:39:37.685Z,32.3
2019-02-11T06:40:27.535Z,32.3
2019-02-11T06:41:17.224Z,32.3
2019-02-11T06:42:07.612Z,32.3
2019-02-11T06:42:57.617Z,32.3
2019-02-11T06:43:47.689Z,32.3
2019-02-11T06:44:37.772Z,32.3
2019-02-11T06:45:27.766Z,32.3
2019-02-11T06:46:18.116Z,32.3
2019-02-11T06:47:08.459Z,32.3
2019-02-11T06:47:58.534Z,32.3
2019-02-11T06:48:48.023Z,32.3
2019-02-11T06:49:37.811Z,32.3
2019-02-11T06:50:28.146Z,32.3
2019-02-11T06:51:17.664Z,32.2
2019-02-11T06:52:07.414Z,32.3
2019-02-11T06:52:58.376Z,32.2
2019-02-11T06:53:47.821Z,32.2
2019-02-11T06:54:38.195Z,32.2
2019-02-11T06:55:27.371Z,32.2
2019-02-11T06:56:18.003Z,32.2
2019-02-11T06:57:10.328Z,32.2
2019-02-11T06:57:58.938Z,32.2
2019-02-11T06:58:48.710Z,32.2
2019-02-11T06:59:39.051Z,32.2
2019-02-11T07:00:28.628Z,32.2
2019-02-11T07:02:08.673Z,32.2
2019-02-11T07:02:58.763Z,32.2
2019-02-11T07:03:48.803Z,32.2
2019-02-11T07:06:15.023Z,32.1
2019-02-11T07:07:05.610Z,32.2
2019-02-11T07:07:55.116Z,32.2
2019-02-11T07:08:45.187Z,32.2
2019-02-11T07:09:35.818Z,32.2
2019-02-11T07:10:25.582Z,32.2
2019-02-11T07:11:14.562Z,32.2
2019-02-11T07:12:04.866Z,32.2
2019-02-11T07:12:55.755Z,32.2
2019-02-11T07:13:45.813Z,32.2
2019-02-11T07:14:35.867Z,32.2
2019-02-11T07:15:28.087Z,32.2
2019-02-11T07:16:16.046Z,32.2
2019-02-11T07:17:05.510Z,32.1
2019-02-11T07:17:55.572Z,32.2
2019-02-11T07:18:45.889Z,32.1
2019-02-11T07:19:36.476Z,32.2
2019-02-11T07:20:25.782Z,32.1
2019-02-11T07:21:15.765Z,32.1
2019-02-11T07:22:06.129Z,32.1
2019-02-11T07:22:55.609Z,32.1
2019-02-11T07:23:46.232Z,32.1
2019-02-11T07:24:36.844Z,32.1
2019-02-11T07:25:26.636Z,32.1
2019-02-11T07:26:16.403Z,32.1
2019-02-11T07:27:06.456Z,32.1
2019-02-11T07:27:56.789Z,32.1
2019-02-11T07:28:46.893Z,32.1
2019-02-11T07:29:36.339Z,32.1
2019-02-11T07:30:25.926Z,32.1
2019-02-11T07:31:17.001Z,32.1
2019-02-11T07:32:07.093Z,32.1
2019-02-11T07:32:57.454Z,32.1
2019-02-11T07:33:46.377Z,32.1
2019-02-11T07:34:36.175Z,32.1
2019-02-11T07:35:27.614Z,32.1
2019-02-11T07:36:19.539Z,32
2019-02-11T07:37:07.509Z,32
2019-02-11T07:37:58.039Z,32
2019-02-11T07:38:47.056Z,32
2019-02-11T07:39:37.351Z,32
2019-02-11T07:40:27.141Z,32
2019-02-11T07:41:17.697Z,32
2019-02-11T07:42:09.463Z,32
2019-02-11T07:42:57.274Z,32
2019-02-11T07:43:47.099Z,32
2019-02-11T07:44:36.823Z,32
2019-02-11T07:45:35.960Z,32
2019-02-11T07:46:18.053Z,32
2019-02-11T07:47:08.099Z,31.9
2019-02-11T07:47:57.910Z,32
2019-02-11T07:48:47.700Z,31.9
2019-02-11T07:49:37.540Z,31.9
2019-02-11T07:50:27.877Z,31.9
2019-02-11T07:51:17.663Z,31.9
2019-02-11T07:52:08.260Z,31.9
2019-02-11T07:52:58.052Z,31.9
2019-02-11T07:53:48.016Z,31.9
2019-02-11T07:54:38.689Z,31.9
2019-02-11T07:55:28.140Z,31.9
2019-02-11T07:56:19.094Z,31.9
2019-02-11T07:57:08.539Z,31.9
2019-02-11T07:57:58.585Z,31.9
2019-02-11T07:58:48.672Z,31.9
2019-02-11T07:59:38.992Z,31.9
2019-02-11T08:00:29.069Z,31.9
2019-02-11T08:01:19.057Z,31.9
2019-02-11T08:02:08.897Z,31.9
2019-02-11T08:02:59.249Z,31.9
2019-02-11T08:03:49.012Z,31.9
2019-02-11T08:04:39.411Z,31.8
2019-02-11T08:05:28.906Z,31.8
2019-02-11T08:06:19.481Z,31.8
2019-02-11T08:07:09.008Z,31.8
2019-02-11T08:07:59.569Z,31.8
2019-02-11T08:08:49.934Z,31.8
2019-02-11T08:09:39.125Z,31.8
2019-02-11T08:10:29.492Z,31.8
2019-02-11T08:11:19.791Z,31.8
2019-02-11T08:12:08.888Z,31.8
2019-02-11T08:12:59.701Z,31.8
2019-02-11T08:13:48.930Z,31.8
2019-02-11T08:14:40.025Z,24.5
2019-02-11T08:15:29.078Z,23.3
2019-02-11T08:16:20.435Z,37.3
2019-02-11T08:17:10.006Z,42
2019-02-11T08:18:01.957Z,43.2
2019-02-11T08:18:50.076Z,43.3
2019-02-11T08:19:40.428Z,43.1
2019-02-11T08:20:30.170Z,42.8
2019-02-11T08:21:20.488Z,42.4
2019-02-11T08:22:09.803Z,42.1
2019-02-11T08:22:59.570Z,41.8
2019-02-11T08:23:49.924Z,41.3
2019-02-11T08:24:40.520Z,41.1
2019-02-11T08:25:30.325Z,40.7
2019-02-11T08:26:20.078Z,40.4
2019-02-11T08:27:10.428Z,40.1
2019-02-11T08:27:59.988Z,39.9
2019-02-11T08:28:50.793Z,39.6
2019-02-11T08:29:40.334Z,39.3
2019-02-11T08:30:30.367Z,39.1
2019-02-11T08:31:20.707Z,38.9
2019-02-11T08:32:11.020Z,38.6
2019-02-11T08:33:01.132Z,38.4
2019-02-11T08:33:50.595Z,38.2
2019-02-11T08:34:40.979Z,38
2019-02-11T08:35:32.665Z,37.8
2019-02-11T08:36:20.705Z,37.6
2019-02-11T08:37:11.160Z,37.4
2019-02-11T08:38:00.597Z,34.1
2019-02-11T08:38:51.489Z,43.9
2019-02-11T08:39:41.274Z,51.1
2019-02-11T08:40:30.242Z,52.5
2019-02-11T08:41:21.392Z,49.4
2019-02-11T08:42:11.722Z,45.9
2019-02-11T08:43:01.512Z,44.6
2019-02-11T08:43:51.834Z,44.6
2019-02-11T08:44:41.334Z,45.1
2019-02-11T08:45:31.682Z,45.9
2019-02-11T08:46:21.197Z,47.3
2019-02-11T08:47:11.992Z,48.3
2019-02-11T08:48:01.033Z,48.9
2019-02-11T08:48:52.016Z,49.1
2019-02-11T08:49:42.071Z,48.8
2019-02-11T08:50:32.786Z,48.6
2019-02-11T08:51:22.098Z,48.8
2019-02-11T08:52:11.864Z,49.1
2019-02-11T08:53:01.636Z,49.4
2019-02-11T08:53:51.703Z,49.9
2019-02-11T08:54:42.028Z,50.6
2019-02-11T08:55:31.819Z,51.2
2019-02-11T08:56:22.420Z,50.9
2019-02-11T08:57:12.675Z,49.9
2019-02-11T08:58:02.578Z,48.8
2019-02-11T08:58:52.330Z,47.8
2019-02-11T08:59:42.390Z,46.9
2019-02-11T09:00:32.371Z,46.3
2019-02-11T09:01:23.303Z,45.9
2019-02-11T09:02:12.828Z,45.6
2019-02-11T09:03:03.400Z,45.3
2019-02-11T09:03:52.403Z,45.1
2019-02-11T09:04:43.019Z,44.9
2019-02-11T09:05:32.793Z,44.6
2019-02-11T09:06:22.958Z,44.4
2019-02-11T09:07:12.687Z,44.1
2019-02-11T09:08:05.722Z,44.1
2019-02-11T09:08:53.015Z,44.3
2019-02-11T09:09:43.322Z,45.1
2019-02-11T09:10:33.428Z,46.6
2019-02-11T09:11:23.682Z,48.1
2019-02-11T09:12:13.747Z,49.3
2019-02-11T09:13:03.584Z,50.1
2019-02-11T09:13:54.125Z,50.6
2019-02-11T09:14:44.190Z,50.8
2019-02-11T09:15:33.701Z,50.9
2019-02-11T09:16:24.644Z,50.9
2019-02-11T09:17:16.459Z,51.1
2019-02-11T09:18:04.730Z,51.5
2019-02-11T09:18:53.912Z,52
2019-02-11T09:19:43.814Z,52.4
2019-02-11T09:20:34.042Z,52.4
2019-02-11T09:21:24.372Z,51.9
2019-02-11T09:22:14.425Z,51
2019-02-11T09:23:03.929Z,50.2
2019-02-11T09:23:54.829Z,49.4
2019-02-11T09:24:44.584Z,49
2019-02-11T09:25:35.206Z,48.9
2019-02-11T09:26:24.446Z,48.9
2019-02-11T09:27:15.054Z,48.9
2019-02-11T09:28:05.101Z,48.6
2019-02-11T09:28:54.646Z,48.2
2019-02-11T09:29:44.921Z,47.8
2019-02-11T09:30:34.242Z,47.4
2019-02-11T09:31:25.059Z,47.1
2019-02-11T09:32:14.837Z,46.8
2019-02-11T09:33:04.718Z,46.6
2019-02-11T09:33:55.017Z,46.4
2019-02-11T09:34:43.930Z,46.3
2019-02-11T09:35:35.394Z,46.2
2019-02-11T09:36:24.931Z,45.9
2019-02-11T09:37:16.000Z,45.7
2019-02-11T09:38:04.973Z,45.5
2019-02-11T09:38:55.310Z,45.3
2019-02-11T09:39:45.418Z,45.1
2019-02-11T09:40:35.773Z,44.9
2019-02-11T09:41:25.768Z,44.8
2019-02-11T09:42:15.876Z,44.7
2019-02-11T09:43:05.881Z,44.6
2019-02-11T09:43:56.285Z,44.6
2019-02-11T09:44:46.538Z,44.5
2019-02-11T09:45:35.515Z,44.5
2019-02-11T09:46:26.438Z,44.4
2019-02-11T09:47:16.458Z,44.3
2019-02-11T09:48:05.978Z,44.3
2019-02-11T09:48:55.538Z,44.3
2019-02-11T09:49:46.620Z,44.4
2019-02-11T09:50:35.845Z,44.4
2019-02-11T09:51:27.024Z,44.4
2019-02-11T09:52:16.524Z,44.3
2019-02-11T09:53:06.300Z,44.3
2019-02-11T09:53:56.639Z,44.1
2019-02-11T09:54:46.243Z,43.9
2019-02-11T09:55:36.737Z,43.8
2019-02-11T09:56:27.112Z,43.8
2019-02-11T09:57:16.576Z,43.7
2019-02-11T09:58:07.208Z,43.6
2019-02-11T09:58:57.105Z,43.4
2019-02-11T09:59:47.064Z,43.4
2019-02-11T10:00:36.337Z,43.3
2019-02-11T10:01:27.484Z,43.1
2019-02-11T10:02:17.491Z,43
2019-02-11T10:03:07.016Z,42.9
2019-02-11T10:03:56.514Z,42.8
2019-02-11T10:04:47.376Z,42.7
2019-02-11T10:07:14.290Z,42.4
2019-02-11T10:08:05.235Z,42.3
2019-02-11T10:08:55.251Z,42.1
2019-02-11T10:09:45.295Z,42
2019-02-11T10:10:35.678Z,41.9
2019-02-11T10:11:24.564Z,41.8
2019-02-11T10:12:23.640Z,41.8
2019-02-11T10:13:05.826Z,41.7
2019-02-11T10:13:55.311Z,41.6
2019-02-11T10:14:45.426Z,41.5
2019-02-11T10:15:34.953Z,41.4
2019-02-11T10:16:27.342Z,41.3
2019-02-11T10:17:15.533Z,40.9
2019-02-11T10:18:06.153Z,40.6
2019-02-11T10:18:55.652Z,40.2
2019-02-11T10:19:45.995Z,39.9
2019-02-11T10:20:35.246Z,39.6
2019-02-11T10:21:26.110Z,39.2
2019-02-11T10:22:15.881Z,38.9
2019-02-11T10:23:05.990Z,38.6
2019-02-11T10:23:56.280Z,38.4
2019-02-11T10:24:46.618Z,38.1
2019-02-11T10:25:35.855Z,37.9
2019-02-11T10:26:26.172Z,37.7
2019-02-11T10:27:16.287Z,37.5
2019-02-11T10:28:06.575Z,37.4
2019-02-11T10:28:56.373Z,37.2
2019-02-11T10:29:46.138Z,37
2019-02-11T10:30:36.775Z,36.8
2019-02-11T10:31:26.850Z,36.7
2019-02-11T10:32:17.409Z,36.6
2019-02-11T10:33:06.393Z,36.4
2019-02-11T10:33:57.253Z,36.3
2019-02-11T10:34:46.805Z,36.1
2019-02-11T10:35:45.194Z,36
2019-02-11T10:36:27.149Z,35.9
2019-02-11T10:37:17.199Z,35.8
2019-02-11T10:38:06.717Z,35.7
2019-02-11T10:38:56.507Z,35.6
2019-02-11T10:39:47.677Z,35.5
2019-02-11T10:40:36.934Z,35.4
2019-02-11T10:41:27.500Z,35.3
2019-02-11T10:42:17.599Z,35.2
2019-02-11T10:43:07.492Z,35.1
2019-02-11T10:43:57.692Z,35
2019-02-11T10:44:47.466Z,34.9
2019-02-11T10:45:42.029Z,34.9
2019-02-11T10:46:27.006Z,34.8
2019-02-11T10:47:17.094Z,34.7
2019-02-11T10:48:08.034Z,34.6
2019-02-11T10:48:57.471Z,34.6
2019-02-11T10:49:48.079Z,34.5
2019-02-11T10:50:38.248Z,34.4
2019-02-11T10:51:27.658Z,34.4
2019-02-11T10:52:18.247Z,34.3
2019-02-11T10:53:08.056Z,34.3
2019-02-11T10:53:58.109Z,34.2
2019-02-11T10:54:48.461Z,34.1
2019-02-11T10:55:37.947Z,34.1
2019-02-11T10:56:28.603Z,34
2019-02-11T10:57:18.335Z,33.9
2019-02-11T10:58:08.221Z,33.9
2019-02-11T10:58:58.762Z,33.9
2019-02-11T10:59:48.532Z,33.8
2019-02-11T11:00:39.103Z,33.8
2019-02-11T11:01:29.933Z,33.8
2019-02-11T11:02:18.173Z,33.7
2019-02-11T11:03:09.350Z,33.6
2019-02-11T11:03:58.520Z,33.6
2019-02-11T11:04:49.395Z,33.6
2019-02-11T11:05:38.943Z,33.5
2019-02-11T11:06:29.608Z,33.4
2019-02-11T11:07:18.762Z,33.4
2019-02-11T11:08:09.663Z,33.4
2019-02-11T11:08:59.426Z,33.4
2019-02-11T11:09:49.472Z,33.3
2019-02-11T11:10:38.707Z,33.3
2019-02-11T11:11:29.862Z,33.3
2019-02-11T11:12:18.819Z,33.3
2019-02-11T11:13:09.144Z,33.2
2019-02-11T11:13:59.284Z,33.2
2019-02-11T11:14:49.032Z,33.1
2019-02-11T11:15:39.658Z,33.1
2019-02-11T11:16:35.887Z,33.1